createdAt,value
2023-03-17T00:02:16.109Z,70.86
2023-03-17T00:04:46.480Z,71.19
2023-03-17T00:07:21.088Z,71.53
2023-03-17T00:09:55.534Z,71.64
2023-03-17T00:12:32.624Z,71.65
2023-03-17T00:15:03.342Z,71.76
2023-03-17T00:18:05.222Z,71.17
2023-03-17T00:20:41.182Z,70.88
2023-03-17T00:23:16.120Z,70.88
2023-03-17T00:25:47.660Z,71.32
2023-03-17T00:28:28.445Z,71.66
2023-03-17T00:31:16.188Z,71.71
2023-03-17T00:33:54.780Z,72.21
2023-03-17T00:36:52.257Z,72.23
2023-03-17T00:40:04.133Z,71.38
2023-03-17T00:42:43.773Z,72.23
2023-03-17T00:45:15.880Z,71.84
2023-03-17T00:48:05.065Z,71.59
2023-03-17T00:50:35.129Z,71.60
2023-03-17T00:53:17.793Z,71.65
2023-03-17T00:55:47.593Z,71.59
2023-03-17T00:58:48.448Z,71.42
2023-03-17T01:01:25.681Z,72.28
2023-03-17T01:04:16.326Z,72.54
2023-03-17T01:07:11.121Z,72.71
2023-03-17T01:09:41.192Z,72.70
2023-03-17T01:12:21.032Z,72.91
2023-03-17T01:14:52.788Z,72.67
2023-03-17T01:17:33.504Z,72.57
2023-03-17T01:20:21.438Z,72.71
2023-03-17T01:22:49.417Z,72.93
2023-03-17T01:25:20.793Z,73.18
2023-03-17T01:27:56.525Z,73.29
2023-03-17T01:30:31.946Z,73.09
2023-03-17T01:33:05.703Z,72.91
2023-03-17T01:35:38.083Z,72.84
2023-03-17T01:38:12.204Z,72.86
2023-03-17T01:41:09.632Z,72.75
2023-03-17T01:43:43.683Z,72.62
2023-03-17T01:46:30.597Z,72.78
2023-03-17T01:49:30.031Z,73.06
2023-03-17T01:52:11.428Z,73.96
2023-03-17T01:55:16.228Z,74.13
2023-03-17T01:57:57.546Z,74.34
2023-03-17T02:03:55.201Z,74.42
2023-03-17T02:06:32.512Z,74.56
2023-03-17T02:09:21.635Z,74.66
2023-03-17T02:11:51.534Z,74.39
2023-03-17T02:14:31.879Z,73.74
2023-03-17T02:17:07.332Z,73.55
2023-03-17T02:19:47.444Z,73.54
2023-03-17T02:22:40.655Z,73.87
2023-03-17T02:25:08.187Z,74.27
2023-03-17T02:27:44.864Z,74.21
2023-03-17T02:30:21.200Z,73.84
2023-03-17T02:32:50.695Z,73.61
2023-03-17T02:35:19.616Z,73.58
2023-03-17T02:37:54.276Z,73.89
2023-03-17T02:40:24.144Z,73.84
2023-03-17T02:42:56.359Z,73.63
2023-03-17T02:45:42.752Z,73.50
2023-03-17T02:48:12.886Z,73.31
2023-03-17T02:51:04.515Z,73.37
2023-03-17T02:53:43.180Z,73.52
2023-03-17T02:56:57.453Z,73.50
2023-03-17T02:59:24.890Z,73.28
2023-03-17T03:01:54.424Z,73.16
2023-03-17T03:04:44.769Z,72.81
2023-03-17T03:07:17.757Z,72.81
2023-03-17T03:09:49.343Z,72.68
2023-03-17T03:12:21.170Z,72.63
2023-03-17T03:15:02.039Z,72.56
2023-03-17T03:17:36.348Z,72.49
2023-03-17T03:20:27.006Z,72.51
2023-03-17T03:22:54.033Z,72.82
2023-03-17T03:25:42.252Z,73.12
2023-03-17T03:28:10.728Z,73.46
2023-03-17T03:31:04.732Z,73.24
2023-03-17T03:33:33.294Z,73.42
2023-03-17T03:36:07.839Z,74.11
2023-03-17T03:39:04.013Z,74.82
2023-03-17T03:41:45.486Z,75.13
2023-03-17T03:44:12.748Z,75.05
2023-03-17T03:46:42.943Z,75.03
2023-03-17T03:49:18.720Z,74.94
2023-03-17T03:52:02.108Z,74.98
2023-03-17T03:54:33.062Z,74.91
2023-03-17T03:57:33.028Z,74.64
2023-03-17T04:00:02.978Z,74.72
2023-03-17T04:02:35.463Z,74.46
2023-03-17T04:05:05.252Z,74.29
2023-03-17T04:07:36.902Z,74.59
2023-03-17T04:10:15.765Z,74.51
2023-03-17T04:12:50.344Z,74.66
2023-03-17T04:15:20.112Z,74.86
2023-03-17T04:17:47.313Z,74.88
2023-03-17T04:20:21.821Z,74.90
2023-03-17T04:23:05.674Z,74.59
2023-03-17T04:25:44.688Z,74.41
2023-03-17T04:28:16.198Z,74.69
2023-03-17T04:30:48.730Z,74.40
2023-03-17T04:33:21.608Z,74.42
2023-03-17T04:36:01.965Z,74.20
2023-03-17T04:38:37.724Z,74.13
2023-03-17T04:41:16.234Z,74.32
2023-03-17T04:47:03.027Z,74.81
2023-03-17T04:50:05.395Z,75.04
2023-03-17T04:52:37.997Z,75.47
2023-03-17T04:55:37.756Z,75.61
2023-03-17T04:58:39.409Z,75.75
2023-03-17T05:01:12.086Z,75.87
2023-03-17T05:04:11.160Z,75.38
2023-03-17T05:06:45.063Z,75.00
2023-03-17T05:09:16.778Z,74.70
2023-03-17T05:11:53.637Z,74.49
2023-03-17T05:14:30.217Z,74.44
2023-03-17T05:17:06.033Z,74.19
2023-03-17T05:19:54.587Z,74.31
2023-03-17T05:22:33.138Z,74.48
2023-03-17T05:25:11.674Z,74.66
2023-03-17T05:27:51.253Z,74.37
2023-03-17T05:30:22.905Z,74.33
2023-03-17T05:32:51.138Z,74.60
2023-03-17T05:35:22.829Z,75.30
2023-03-17T05:38:28.357Z,75.56
2023-03-17T05:41:37.779Z,75.07
2023-03-17T05:44:19.482Z,74.90
2023-03-17T05:47:15.414Z,74.75
2023-03-17T05:49:53.841Z,74.98
2023-03-17T05:52:43.514Z,74.84
2023-03-17T05:55:23.286Z,74.39
2023-03-17T05:57:49.773Z,74.71
2023-03-17T06:00:18.170Z,74.80
2023-03-17T06:02:45.201Z,74.50
2023-03-17T06:05:12.666Z,74.91
2023-03-17T06:07:51.659Z,74.62
2023-03-17T06:10:20.011Z,74.57
2023-03-17T06:12:46.759Z,74.87
2023-03-17T06:15:13.157Z,74.70
2023-03-17T06:17:39.643Z,74.44
2023-03-17T06:20:06.566Z,74.65
2023-03-17T06:22:33.050Z,74.23
2023-03-17T06:25:00.368Z,74.04
2023-03-17T06:27:26.788Z,73.88
2023-03-17T06:29:53.201Z,74.64
2023-03-17T06:32:21.144Z,74.94
2023-03-17T06:34:47.823Z,74.49
2023-03-17T06:37:14.879Z,74.03
2023-03-17T06:39:41.705Z,73.68
2023-03-17T06:42:09.348Z,73.54
2023-03-17T06:44:36.519Z,73.72
2023-03-17T06:47:03.067Z,73.77
2023-03-17T06:49:29.592Z,73.55
2023-03-17T06:51:56.022Z,73.08
2023-03-17T06:54:24.750Z,72.79
2023-03-17T06:56:52.336Z,72.80
2023-03-17T06:59:19.853Z,72.28
2023-03-17T07:01:49.983Z,72.02
2023-03-17T07:04:16.526Z,72.02
2023-03-17T07:06:43.256Z,71.88
2023-03-17T07:09:10.208Z,71.77
2023-03-17T07:11:36.785Z,71.63
2023-03-17T07:14:03.452Z,71.62
2023-03-17T07:16:30.280Z,71.22
2023-03-17T07:18:56.813Z,71.28
2023-03-17T07:21:23.216Z,71.12
2023-03-17T07:23:52.990Z,70.92
2023-03-17T07:26:19.412Z,70.68
2023-03-17T07:28:46.104Z,70.46
2023-03-17T07:31:13.816Z,70.40
2023-03-17T07:33:41.316Z,70.28
2023-03-17T07:36:09.754Z,70.19
2023-03-17T07:38:36.820Z,70.25
2023-03-17T07:41:04.213Z,70.13
2023-03-17T07:43:31.279Z,69.92
2023-03-17T07:45:58.326Z,69.75
2023-03-17T07:48:25.445Z,69.63
2023-03-17T07:50:51.947Z,69.55
2023-03-17T07:53:18.677Z,69.45
2023-03-17T07:55:45.199Z,69.33
2023-03-17T07:58:13.122Z,69.20
2023-03-17T08:00:43.912Z,69.09
2023-03-17T08:03:11.240Z,69.00
2023-03-17T08:05:39.043Z,68.87
2023-03-17T08:08:06.000Z,68.75
2023-03-17T08:10:32.671Z,68.63
2023-03-17T08:12:59.271Z,68.48
2023-03-17T08:15:26.170Z,68.29
2023-03-17T08:17:53.585Z,68.01
2023-03-17T08:20:21.187Z,67.49
2023-03-17T08:22:47.878Z,67.46
2023-03-17T08:25:14.602Z,67.31
2023-03-17T08:27:41.939Z,67.19
2023-03-17T08:30:09.657Z,67.09
2023-03-17T08:32:36.966Z,66.56
2023-03-17T08:35:05.666Z,66.24
2023-03-17T08:37:32.362Z,66.17
2023-03-17T08:39:59.009Z,66.07
2023-03-17T08:42:25.470Z,65.98
2023-03-17T08:44:52.453Z,65.84
2023-03-17T08:47:19.339Z,65.41
2023-03-17T08:49:45.733Z,64.90
2023-03-17T08:52:12.221Z,64.58
2023-03-17T08:54:38.900Z,63.92
2023-03-17T08:57:06.008Z,64.36
2023-03-17T08:59:33.057Z,64.07
2023-03-17T09:01:59.994Z,63.67
2023-03-17T09:04:27.338Z,63.44
2023-03-17T09:07:03.201Z,63.26
2023-03-17T09:09:31.742Z,62.04
2023-03-17T09:11:59.046Z,62.41
2023-03-17T09:14:25.465Z,62.39
2023-03-17T09:16:52.412Z,62.47
2023-03-17T09:19:18.979Z,62.23
2023-03-17T09:21:46.010Z,61.87
2023-03-17T09:24:13.102Z,61.66
2023-03-17T09:26:40.057Z,61.73
2023-03-17T09:29:07.205Z,60.42
2023-03-17T09:31:35.553Z,60.61
2023-03-17T09:34:04.547Z,60.83
2023-03-17T09:36:35.579Z,60.00
2023-03-17T09:39:02.533Z,60.26
2023-03-17T09:41:37.306Z,59.84
2023-03-17T09:44:22.349Z,58.45
2023-03-17T09:47:06.449Z,58.16
2023-03-17T09:49:48.840Z,58.23
2023-03-17T09:52:18.405Z,58.44
2023-03-17T09:54:48.899Z,58.03
2023-03-17T09:57:24.208Z,58.12
2023-03-17T10:00:00.762Z,57.88
2023-03-17T10:02:32.892Z,57.23
2023-03-17T10:05:13.505Z,56.68
2023-03-17T10:07:58.784Z,56.67
2023-03-17T10:10:41.873Z,56.25
2023-03-17T10:13:25.345Z,56.52
2023-03-17T10:16:03.515Z,56.28
2023-03-17T10:18:56.209Z,55.93
2023-03-17T10:21:28.181Z,54.85
2023-03-17T10:23:57.131Z,55.51
2023-03-17T10:26:34.762Z,54.99
2023-03-17T10:29:05.588Z,54.93
2023-03-17T10:31:34.844Z,54.90
2023-03-17T10:34:32.414Z,54.55
2023-03-17T10:37:17.401Z,54.79
2023-03-17T10:39:53.846Z,53.87
2023-03-17T10:42:28.999Z,54.18
2023-03-17T10:45:01.481Z,53.96
2023-03-17T10:47:39.926Z,53.94
2023-03-17T10:50:28.258Z,53.83
2023-03-17T10:53:05.376Z,53.61
2023-03-17T10:55:40.172Z,53.55
2023-03-17T10:58:15.369Z,53.41
2023-03-17T11:01:07.722Z,53.77
2023-03-17T11:03:39.072Z,53.50
2023-03-17T11:06:09.752Z,53.58
2023-03-17T11:08:53.051Z,53.65
2023-03-17T11:11:29.274Z,53.16
2023-03-17T11:14:03.411Z,52.71
2023-03-17T11:16:34.436Z,53.03
2023-03-17T11:19:02.878Z,52.36
2023-03-17T11:21:32.086Z,51.71
2023-03-17T11:24:03.986Z,51.77
2023-03-17T11:26:45.073Z,52.08
2023-03-17T11:29:41.652Z,51.62
2023-03-17T11:32:20.977Z,51.68
2023-03-17T11:35:12.153Z,52.08
2023-03-17T11:38:15.159Z,52.01
2023-03-17T11:40:53.683Z,52.25
2023-03-17T11:43:36.800Z,51.76
2023-03-17T11:46:15.378Z,51.97
2023-03-17T11:48:50.468Z,51.79
2023-03-17T11:51:17.259Z,51.03
2023-03-17T11:54:10.035Z,51.36
2023-03-17T11:56:49.534Z,51.49
2023-03-17T11:59:35.540Z,49.93
2023-03-17T12:02:28.030Z,50.68
2023-03-17T12:05:04.448Z,50.90
2023-03-17T12:07:36.848Z,50.97
2023-03-17T12:10:14.945Z,49.03
2023-03-17T12:12:49.803Z,49.93
2023-03-17T12:15:41.402Z,50.84
2023-03-17T12:18:13.504Z,50.81
2023-03-17T12:21:04.475Z,50.43
2023-03-17T12:23:44.682Z,49.55
2023-03-17T12:26:17.702Z,49.13
2023-03-17T12:29:03.533Z,49.12
2023-03-17T12:31:36.830Z,48.85
2023-03-17T12:34:25.377Z,48.69
2023-03-17T12:36:53.440Z,49.54
2023-03-17T12:39:26.612Z,48.97
2023-03-17T12:42:05.447Z,48.87
2023-03-17T12:44:44.628Z,49.30
2023-03-17T12:47:26.780Z,49.07
2023-03-17T12:50:17.650Z,48.83
2023-03-17T12:53:02.106Z,48.05
2023-03-17T12:55:32.846Z,49.02
2023-03-17T12:58:04.080Z,48.94
2023-03-17T13:00:33.458Z,49.01
2023-03-17T13:03:15.879Z,48.87
2023-03-17T13:05:49.481Z,48.68
2023-03-17T13:08:30.263Z,48.94
2023-03-17T13:11:28.979Z,49.45
2023-03-17T13:14:08.069Z,48.95
2023-03-17T13:16:44.158Z,48.43
2023-03-17T13:19:23.178Z,48.47
2023-03-17T13:21:59.819Z,49.13
2023-03-17T13:24:43.371Z,49.10
2023-03-17T13:27:14.062Z,48.36
2023-03-17T13:29:45.081Z,48.50
2023-03-17T13:32:24.148Z,48.63
2023-03-17T13:34:57.999Z,49.06
2023-03-17T13:37:35.068Z,48.70
2023-03-17T13:40:24.541Z,48.94
2023-03-17T13:43:05.974Z,48.12
2023-03-17T13:45:39.022Z,48.83
2023-03-17T13:48:29.474Z,48.56
2023-03-17T13:51:16.270Z,48.92
2023-03-17T13:53:53.264Z,48.97
2023-03-17T13:56:40.986Z,48.52
2023-03-17T13:59:14.343Z,47.53
2023-03-17T14:01:47.841Z,48.03
2023-03-17T14:04:44.090Z,48.13
2023-03-17T14:07:16.418Z,49.08
2023-03-17T14:09:43.705Z,49.36
2023-03-17T14:12:12.439Z,48.61
2023-03-17T14:14:52.512Z,48.87
2023-03-17T14:17:31.557Z,49.06
2023-03-17T14:20:07.729Z,49.02
2023-03-17T14:22:46.567Z,48.94
2023-03-17T14:25:19.652Z,48.85
2023-03-17T14:27:51.146Z,49.10
2023-03-17T14:30:21.282Z,48.45
2023-03-17T14:32:56.114Z,49.32
2023-03-17T14:35:22.584Z,49.60
2023-03-17T14:37:49.077Z,48.89
2023-03-17T14:40:28.229Z,48.99
2023-03-17T14:42:55.659Z,49.02
2023-03-17T14:45:48.699Z,49.09
2023-03-17T14:49:07.024Z,49.25
2023-03-17T14:52:41.518Z,49.57
2023-03-17T15:03:02.531Z,49.70
2023-03-17T15:03:25.697Z,49.14
2023-03-17T15:10:06.890Z,49.56
2023-03-17T15:12:33.799Z,49.71
2023-03-17T15:15:05.622Z,49.62
2023-03-17T15:17:36.075Z,49.73
2023-03-17T15:20:11.243Z,49.78
2023-03-17T15:22:37.620Z,49.97
2023-03-17T15:25:29.051Z,50.13
2023-03-17T15:27:56.158Z,50.27
2023-03-17T15:30:45.898Z,50.35
2023-03-17T15:33:22.615Z,50.60
2023-03-17T15:35:53.090Z,51.06
2023-03-17T15:38:26.170Z,50.95
2023-03-17T15:40:55.983Z,51.01
2023-03-17T15:43:23.069Z,50.95
2023-03-17T15:46:08.019Z,51.03
2023-03-17T15:48:36.590Z,50.94
2023-03-17T15:51:05.819Z,50.88
2023-03-17T15:53:32.455Z,51.23
2023-03-17T15:55:59.014Z,51.39
2023-03-17T15:58:34.638Z,51.31
2023-03-17T16:01:02.823Z,51.50
2023-03-17T16:03:35.104Z,51.62
2023-03-17T16:06:20.307Z,51.84
2023-03-17T16:08:48.325Z,51.93
2023-03-17T16:11:18.645Z,52.04
2023-03-17T16:13:49.786Z,52.09
2023-03-17T16:16:45.819Z,52.30
2023-03-17T16:19:19.558Z,52.40
2023-03-17T16:21:46.896Z,52.52
2023-03-17T16:24:23.181Z,52.65
2023-03-17T16:26:50.264Z,52.81
2023-03-17T16:29:18.113Z,52.74
2023-03-17T16:31:48.657Z,52.94
2023-03-17T16:34:21.543Z,53.01
2023-03-17T16:36:49.980Z,53.24
2023-03-17T16:39:18.690Z,53.37
2023-03-17T16:41:46.848Z,53.52
2023-03-17T16:44:16.251Z,53.69
2023-03-17T16:46:44.532Z,53.81
2023-03-17T16:49:17.183Z,54.04
2023-03-17T16:51:44.158Z,54.17
2023-03-17T16:54:11.023Z,54.36
2023-03-17T16:56:47.531Z,54.40
2023-03-17T16:59:27.668Z,54.54
2023-03-17T17:01:54.784Z,54.70
2023-03-17T17:04:21.470Z,54.78
2023-03-17T17:07:00.025Z,54.98
2023-03-17T17:09:33.480Z,55.05
2023-03-17T17:12:01.320Z,55.26
2023-03-17T17:14:27.885Z,55.43
2023-03-17T17:16:54.533Z,55.49
2023-03-17T17:19:23.431Z,55.73
2023-03-17T17:21:50.487Z,55.85
2023-03-17T17:24:17.483Z,55.82
2023-03-17T17:26:44.273Z,55.94
2023-03-17T17:29:11.515Z,56.04
2023-03-17T17:31:38.117Z,56.26
2023-03-17T17:34:04.698Z,56.35
2023-03-17T17:36:31.634Z,56.44
2023-03-17T17:38:59.479Z,56.58
2023-03-17T17:41:26.191Z,56.68
2023-03-17T17:43:53.221Z,56.72
2023-03-17T17:46:21.996Z,56.90
2023-03-17T17:48:50.174Z,56.90
2023-03-17T17:51:20.066Z,56.91
2023-03-17T17:53:46.609Z,57.01
2023-03-17T17:56:17.459Z,57.12
2023-03-17T17:58:43.928Z,57.28
2023-03-17T18:01:13.299Z,57.30
2023-03-17T18:03:42.127Z,57.39
2023-03-17T18:06:09.559Z,57.48
2023-03-17T18:08:36.451Z,57.56
2023-03-17T18:11:03.153Z,57.63
2023-03-17T18:13:29.545Z,57.69
2023-03-17T18:15:56.459Z,57.74
2023-03-17T18:18:23.450Z,57.70
2023-03-17T18:20:50.468Z,57.78
2023-03-17T18:23:17.089Z,57.81
2023-03-17T18:25:43.574Z,57.83
2023-03-17T18:28:10.081Z,57.91
2023-03-17T18:30:37.610Z,58.10
2023-03-17T18:33:13.316Z,57.96
2023-03-17T18:35:41.108Z,57.99
2023-03-17T18:38:08.030Z,58.01
2023-03-17T18:40:35.542Z,57.97
2023-03-17T18:43:02.172Z,57.94
2023-03-17T18:45:28.626Z,57.86
2023-03-17T18:47:55.491Z,57.91
2023-03-17T18:50:22.587Z,57.91
2023-03-17T18:52:49.659Z,57.84
2023-03-17T18:55:16.718Z,57.76
2023-03-17T18:57:45.207Z,57.73
2023-03-17T19:00:15.696Z,57.52
2023-03-17T19:02:42.808Z,57.53
2023-03-17T19:05:10.849Z,57.47
2023-03-17T19:07:40.084Z,57.39
2023-03-17T19:10:09.241Z,57.39
2023-03-17T19:12:36.635Z,57.39
2023-03-17T19:15:05.568Z,57.30
2023-03-17T19:17:32.989Z,57.22
2023-03-17T19:19:59.452Z,57.10
2023-03-17T19:22:26.403Z,56.99
2023-03-17T19:24:52.888Z,56.98
2023-03-17T19:27:20.083Z,56.92
2023-03-17T19:29:46.955Z,56.88
2023-03-17T19:32:13.409Z,56.72
2023-03-17T19:34:39.867Z,56.77
2023-03-17T19:37:06.270Z,56.86
2023-03-17T19:39:33.367Z,56.78
2023-03-17T19:42:00.379Z,56.68
2023-03-17T19:44:27.401Z,56.81
2023-03-17T19:46:54.048Z,56.75
2023-03-17T19:49:20.843Z,56.70
2023-03-17T19:51:48.348Z,56.66
2023-03-17T19:54:16.106Z,56.56
2023-03-17T19:56:43.103Z,56.53
2023-03-17T19:59:09.760Z,56.75
2023-03-17T20:01:37.416Z,56.81
2023-03-17T20:04:06.226Z,56.82
2023-03-17T20:06:33.882Z,56.83
2023-03-17T20:09:03.528Z,56.90
2023-03-17T20:11:33.228Z,56.74
2023-03-17T20:14:01.091Z,56.73
2023-03-17T20:16:29.722Z,56.91
2023-03-17T20:18:56.165Z,57.04
2023-03-17T20:21:23.284Z,57.07
2023-03-17T20:23:50.906Z,57.18
2023-03-17T20:26:19.340Z,57.05
2023-03-17T20:28:46.356Z,57.14
2023-03-17T20:31:13.198Z,57.09
2023-03-17T20:33:40.568Z,57.19
2023-03-17T20:36:08.681Z,57.18
2023-03-17T20:38:38.268Z,57.23
2023-03-17T20:41:10.748Z,57.31
2023-03-17T20:43:37.671Z,57.37
2023-03-17T20:46:08.117Z,57.35
2023-03-17T20:48:36.479Z,57.42
2023-03-17T20:51:05.635Z,57.54
2023-03-17T20:53:33.705Z,57.47
2023-03-17T20:56:00.167Z,57.57
2023-03-17T20:58:27.204Z,57.58
2023-03-17T21:00:55.624Z,57.50
2023-03-17T21:03:22.221Z,57.61
2023-03-17T21:05:48.725Z,57.75
2023-03-17T21:08:15.799Z,57.78
2023-03-17T21:10:42.665Z,57.71
2023-03-17T21:13:09.623Z,57.71
2023-03-17T21:15:36.046Z,57.73
2023-03-17T21:18:02.736Z,57.84
2023-03-17T21:20:29.640Z,57.76
2023-03-17T21:22:56.830Z,57.72
2023-03-17T21:25:24.109Z,57.72
2023-03-17T21:27:51.590Z,57.73
2023-03-17T21:30:18.199Z,57.86
2023-03-17T21:32:44.746Z,57.78
2023-03-17T21:35:13.400Z,57.70
2023-03-17T21:37:40.346Z,57.73
2023-03-17T21:40:07.947Z,57.59
2023-03-17T21:42:34.680Z,57.70
2023-03-17T21:45:01.163Z,57.72
2023-03-17T21:47:29.392Z,57.56
2023-03-17T21:49:57.360Z,57.73
2023-03-17T21:52:24.822Z,57.66
2023-03-17T21:54:51.231Z,57.67
2023-03-17T21:57:17.667Z,57.68
2023-03-17T21:59:44.936Z,57.68
2023-03-17T22:02:12.589Z,57.69
2023-03-17T22:04:40.992Z,57.75
2023-03-17T22:07:07.427Z,57.78
2023-03-17T22:09:33.954Z,57.83
2023-03-17T22:12:00.516Z,57.79
2023-03-17T22:14:27.112Z,57.69
2023-03-17T22:16:54.130Z,57.75
2023-03-17T22:19:21.967Z,57.86
2023-03-17T22:21:49.088Z,57.87
2023-03-17T22:24:16.216Z,57.87
2023-03-17T22:26:42.672Z,57.96
2023-03-17T22:29:09.177Z,57.92
2023-03-17T22:31:36.096Z,57.97
2023-03-17T22:34:03.653Z,58.13
2023-03-17T22:36:30.478Z,58.13
2023-03-17T22:38:58.052Z,58.09
2023-03-17T22:41:27.700Z,58.14
2023-03-17T22:43:54.249Z,58.21
2023-03-17T22:46:21.558Z,58.22
2023-03-17T22:48:49.720Z,58.35
2023-03-17T22:51:20.847Z,58.58
2023-03-17T22:53:47.909Z,58.76
2023-03-17T22:56:15.846Z,58.86
2023-03-17T22:58:43.113Z,58.96
2023-03-17T23:01:11.779Z,59.14
2023-03-17T23:03:39.244Z,59.45
2023-03-17T23:06:07.125Z,59.44
2023-03-17T23:08:36.807Z,59.99
2023-03-17T23:11:32.625Z,60.29
2023-03-17T23:13:59.652Z,60.84
2023-03-17T23:16:26.653Z,60.71
2023-03-17T23:18:53.112Z,60.76
2023-03-17T23:21:24.954Z,61.03
2023-03-17T23:23:51.552Z,61.17
2023-03-17T23:26:18.726Z,61.54
2023-03-17T23:28:45.812Z,61.54
2023-03-17T23:31:12.366Z,61.74
2023-03-17T23:33:39.124Z,61.78
2023-03-17T23:36:06.386Z,62.10
2023-03-17T23:38:33.530Z,62.15
2023-03-17T23:41:00.435Z,62.37
2023-03-17T23:43:27.456Z,62.35
2023-03-17T23:45:54.119Z,62.45
2023-03-17T23:48:21.557Z,62.51
2023-03-17T23:50:52.049Z,62.66
2023-03-17T23:53:19.034Z,62.99
2023-03-17T23:55:46.205Z,63.08
2023-03-17T23:58:13.705Z,62.97
